Kimberley Downs, Australia
Current Conditions -  °F | °C
As of 11:00 PM on Monday 24 Nov 2014 (Local Time) from YCIN Reporting Station
Clear Clear  
Wind Chill: 86°   Ceiling: Unl
Heat Index: 89°   Visibility: NA
Dew Point: 68°   Wind: 6mph
Humidity: 55%   Direction: 300°WNW
Pressure: 29.74"   Gusts: NA
Location:  17.4°S, 124.35°E
Report Text: YCIN 241500Z AUTO 30005KT //// // NCD 30/20 Q1007
Loading
Personal Weather Stations






























Interactive Weather Map New forecast layout! Learn more

10-Day Weather Forecast

Advertisements
Track Severe Weather on mobile